createdAt,value
2017-10-15T00:00:19.180Z,18.73
2017-10-15T00:02:46.732Z,18.87
2017-10-15T00:05:14.311Z,21.00
2017-10-15T00:07:41.843Z,19.15
2017-10-15T00:10:09.375Z,20.30
2017-10-15T00:12:37.099Z,20.27
2017-10-15T00:15:04.632Z,18.55
2017-10-15T00:17:32.159Z,19.08
2017-10-15T00:19:59.745Z,17.08
2017-10-15T00:22:27.268Z,18.08
2017-10-15T00:24:54.917Z,16.20
2017-10-15T00:27:22.658Z,18.30
2017-10-15T00:29:50.187Z,18.23
2017-10-15T00:32:17.711Z,18.95
2017-10-15T00:34:45.446Z,19.10
2017-10-15T00:37:12.976Z,18.77
2017-10-15T00:39:40.503Z,19.83
2017-10-15T00:42:08.108Z,16.60
2017-10-15T00:44:35.632Z,17.90
2017-10-15T00:47:03.160Z,18.60
2017-10-15T00:49:30.739Z,18.70
2017-10-15T00:51:58.269Z,16.52
2017-10-15T00:54:25.888Z,16.95
2017-10-15T00:56:53.447Z,19.58
2017-10-15T00:59:21.027Z,19.58
2017-10-15T01:01:48.550Z,17.55
2017-10-15T01:04:16.255Z,17.83
2017-10-15T01:06:43.795Z,19.10
2017-10-15T01:09:11.315Z,17.60
2017-10-15T01:11:39.030Z,18.20
2017-10-15T01:14:06.555Z,18.65
2017-10-15T01:16:34.075Z,19.95
2017-10-15T01:19:01.935Z,18.27
2017-10-15T01:21:29.493Z,20.85
2017-10-15T01:23:57.020Z,20.67
2017-10-15T01:26:24.610Z,20.27
2017-10-15T01:28:52.136Z,19.80
2017-10-15T01:31:19.667Z,18.55
2017-10-15T01:33:47.370Z,19.70
2017-10-15T01:36:14.891Z,23.83
2017-10-15T01:38:42.413Z,22.55
2017-10-15T01:41:09.991Z,22.23
2017-10-15T01:43:37.574Z,22.73
2017-10-15T01:46:05.265Z,24.33
2017-10-15T01:48:33.044Z,24.48
2017-10-15T01:51:00.571Z,22.73
2017-10-15T01:53:28.103Z,23.73
2017-10-15T01:55:55.919Z,24.98
2017-10-15T01:58:23.445Z,24.30
2017-10-15T02:00:50.991Z,22.50
2017-10-15T02:03:18.798Z,23.95
2017-10-15T02:05:47.096Z,20.83
2017-10-15T02:08:14.619Z,22.30
2017-10-15T02:10:42.327Z,23.58
2017-10-15T02:13:09.856Z,26.10
2017-10-15T02:15:37.383Z,27.67
2017-10-15T02:18:05.179Z,25.33
2017-10-15T02:20:32.704Z,24.20
2017-10-15T02:23:00.228Z,22.90
2017-10-15T02:25:27.972Z,23.80
2017-10-15T02:27:55.503Z,23.15
2017-10-15T02:30:23.028Z,24.65
2017-10-15T02:32:50.843Z,22.05
2017-10-15T02:35:18.411Z,24.00
2017-10-15T02:37:45.944Z,24.65
2017-10-15T02:40:13.723Z,24.12
2017-10-15T02:42:41.251Z,26.83
2017-10-15T02:45:08.774Z,26.87
2017-10-15T02:47:36.504Z,22.95
2017-10-15T02:50:04.031Z,23.20
2017-10-15T02:52:31.565Z,24.02
2017-10-15T02:54:59.591Z,23.02
2017-10-15T02:57:27.120Z,22.60
2017-10-15T02:59:54.654Z,22.27
2017-10-15T03:02:22.599Z,24.67
2017-10-15T03:04:50.122Z,20.50
2017-10-15T03:07:17.643Z,20.65
2017-10-15T03:09:45.352Z,21.40
2017-10-15T03:12:12.887Z,22.45
2017-10-15T03:14:40.415Z,21.15
2017-10-15T03:17:08.060Z,21.60
2017-10-15T03:19:35.586Z,21.55
2017-10-15T03:22:03.112Z,21.95
2017-10-15T03:24:30.692Z,21.62
2017-10-15T03:26:58.222Z,22.15
2017-10-15T03:29:25.754Z,22.55
2017-10-15T03:31:53.339Z,24.12
2017-10-15T03:34:20.864Z,22.00
2017-10-15T03:36:48.399Z,23.48
2017-10-15T03:39:16.063Z,25.40
2017-10-15T03:41:43.593Z,25.05
2017-10-15T03:44:11.115Z,24.02
2017-10-15T03:46:38.944Z,25.48
2017-10-15T03:49:06.463Z,24.08
2017-10-15T03:51:33.983Z,20.75
2017-10-15T03:54:01.727Z,22.65
2017-10-15T03:56:29.256Z,21.25
2017-10-15T03:58:56.788Z,22.55
2017-10-15T04:01:24.624Z,21.35
2017-10-15T04:03:52.180Z,23.25
2017-10-15T04:06:19.703Z,23.27
2017-10-15T04:08:47.387Z,20.70
2017-10-15T04:11:14.915Z,24.20
2017-10-15T04:13:42.438Z,23.60
2017-10-15T04:16:10.299Z,23.08
2017-10-15T04:18:37.822Z,23.73
2017-10-15T04:21:05.360Z,22.77
2017-10-15T04:23:33.074Z,18.85
2017-10-15T04:26:00.601Z,18.62
2017-10-15T04:28:28.129Z,22.27
2017-10-15T04:30:55.755Z,20.25
2017-10-15T04:33:23.277Z,20.75
2017-10-15T04:35:50.949Z,23.80
2017-10-15T04:38:18.714Z,24.15
2017-10-15T04:40:46.244Z,21.77
2017-10-15T04:43:13.771Z,21.35
2017-10-15T04:45:41.423Z,20.88
2017-10-15T04:48:08.951Z,20.08
2017-10-15T04:50:36.479Z,18.92
2017-10-15T04:53:04.372Z,18.87
2017-10-15T04:55:31.909Z,19.27
2017-10-15T04:57:59.438Z,20.02
2017-10-15T05:00:27.150Z,17.50
2017-10-15T05:02:54.675Z,19.17
2017-10-15T05:05:22.199Z,23.17
2017-10-15T05:07:50.140Z,18.87
2017-10-15T05:10:17.667Z,17.80
2017-10-15T05:12:45.224Z,20.35
2017-10-15T05:15:13.087Z,19.77
2017-10-15T05:17:40.606Z,18.10
2017-10-15T05:20:08.128Z,19.83
2017-10-15T05:22:35.897Z,20.90
2017-10-15T05:25:03.422Z,20.30
2017-10-15T05:27:30.956Z,22.00
2017-10-15T05:29:58.886Z,17.17
2017-10-15T05:32:26.415Z,17.92
2017-10-15T05:34:53.934Z,17.42
2017-10-15T05:37:21.786Z,17.20
2017-10-15T05:39:49.313Z,18.83
2017-10-15T05:42:16.841Z,20.67
2017-10-15T05:44:44.661Z,16.12
2017-10-15T05:47:12.181Z,17.90
2017-10-15T05:49:39.710Z,15.77
2017-10-15T05:52:07.431Z,15.73
2017-10-15T05:54:34.955Z,16.77
2017-10-15T05:57:02.489Z,16.98
2017-10-15T05:59:30.211Z,16.40
2017-10-15T06:01:57.761Z,16.05
2017-10-15T06:04:25.326Z,17.30
2017-10-15T06:06:52.986Z,14.18
2017-10-15T06:09:20.519Z,15.80
2017-10-15T06:11:48.048Z,16.65
2017-10-15T06:14:15.619Z,15.90
2017-10-15T06:16:43.158Z,15.18
2017-10-15T06:19:10.683Z,14.25
2017-10-15T06:21:38.567Z,16.50
2017-10-15T06:24:06.155Z,15.23
2017-10-15T06:26:33.715Z,15.70
2017-10-15T06:29:01.562Z,13.85
2017-10-15T06:31:29.087Z,15.20
2017-10-15T06:33:56.621Z,15.18
2017-10-15T06:36:24.520Z,15.93
2017-10-15T06:38:52.052Z,14.13
2017-10-15T06:41:19.580Z,14.40
2017-10-15T06:43:47.251Z,14.60
2017-10-15T06:46:14.791Z,14.45
2017-10-15T06:48:42.328Z,15.52
2017-10-15T06:51:10.234Z,13.52
2017-10-15T06:53:37.776Z,13.45
2017-10-15T06:56:05.317Z,14.87
2017-10-15T06:58:32.991Z,14.85
2017-10-15T07:01:00.570Z,15.10
2017-10-15T07:03:28.098Z,14.90
2017-10-15T07:05:55.843Z,14.73
2017-10-15T07:08:23.363Z,14.90
2017-10-15T07:10:50.883Z,14.40
2017-10-15T07:13:18.467Z,14.10
2017-10-15T07:15:45.992Z,14.60
2017-10-15T07:18:13.519Z,15.57
2017-10-15T07:20:41.201Z,12.57
2017-10-15T07:23:08.731Z,13.17
2017-10-15T07:25:36.317Z,14.33
2017-10-15T07:28:04.099Z,13.83
2017-10-15T07:30:31.619Z,13.77
2017-10-15T07:32:59.185Z,12.80
2017-10-15T07:35:26.964Z,14.03
2017-10-15T07:37:54.487Z,14.73
2017-10-15T07:40:22.006Z,13.70
2017-10-15T07:42:49.839Z,14.30
2017-10-15T07:45:17.375Z,14.37
2017-10-15T07:47:44.900Z,14.80
2017-10-15T07:50:13.051Z,13.17
2017-10-15T07:52:40.643Z,14.40
2017-10-15T07:55:08.194Z,13.70
2017-10-15T07:57:35.947Z,13.03
2017-10-15T08:00:03.475Z,13.33
2017-10-15T08:02:30.996Z,13.70
2017-10-15T08:04:58.806Z,13.70
2017-10-15T08:07:26.342Z,13.57
2017-10-15T08:09:53.926Z,14.17
2017-10-15T08:12:21.805Z,12.63
2017-10-15T08:14:49.347Z,12.63
2017-10-15T08:17:16.999Z,13.23
2017-10-15T08:19:44.890Z,13.47
2017-10-15T08:22:12.496Z,13.47
2017-10-15T08:24:40.082Z,12.97
2017-10-15T08:27:07.768Z,12.70
2017-10-15T08:29:35.390Z,12.93
2017-10-15T08:32:03.016Z,13.03
2017-10-15T08:34:30.595Z,12.57
2017-10-15T08:36:58.119Z,12.37
2017-10-15T08:39:27.746Z,13.80
2017-10-15T08:41:55.675Z,13.77
2017-10-15T08:44:23.275Z,12.73
2017-10-15T08:46:50.794Z,11.37
2017-10-15T08:49:18.456Z,12.77
2017-10-15T08:51:46.371Z,11.77
2017-10-15T08:54:13.901Z,13.67
2017-10-15T08:56:41.499Z,12.70
2017-10-15T08:59:09.032Z,15.40
2017-10-15T09:01:36.555Z,13.30
2017-10-15T09:04:04.217Z,13.50
2017-10-15T09:06:31.742Z,13.00
2017-10-15T09:08:59.445Z,14.27
2017-10-15T09:11:27.353Z,14.00
2017-10-15T09:13:54.991Z,12.70
2017-10-15T09:16:22.630Z,11.40
2017-10-15T09:18:50.532Z,10.83
2017-10-15T09:21:18.080Z,10.30
2017-10-15T09:23:45.725Z,11.60
2017-10-15T09:26:13.315Z,9.90
2017-10-15T09:28:41.044Z,9.70
2017-10-15T09:31:08.563Z,9.70
2017-10-15T09:33:36.386Z,8.83
2017-10-15T09:36:05.023Z,8.97
2017-10-15T09:38:32.619Z,10.10
2017-10-15T09:41:00.714Z,9.50
2017-10-15T09:43:28.553Z,8.70
2017-10-15T09:45:56.420Z,8.00
2017-10-15T09:48:24.493Z,7.77
2017-10-15T09:50:52.231Z,8.90
2017-10-15T09:53:19.760Z,8.30
2017-10-15T09:55:47.580Z,8.37
2017-10-15T09:58:15.349Z,8.40
2017-10-15T10:00:43.208Z,8.27
2017-10-15T10:03:11.382Z,8.47
2017-10-15T10:05:39.919Z,8.43
2017-10-15T10:08:07.625Z,7.22
2017-10-15T10:10:35.704Z,8.13
2017-10-15T10:13:03.350Z,7.53
2017-10-15T10:15:31.021Z,7.62
2017-10-15T10:17:58.751Z,7.28
2017-10-15T10:20:26.338Z,6.85
2017-10-15T10:22:54.096Z,7.18
2017-10-15T10:25:21.982Z,7.00
2017-10-15T10:27:49.503Z,8.07
2017-10-15T10:30:17.100Z,7.10
2017-10-15T10:32:44.856Z,6.85
2017-10-15T10:35:12.619Z,6.68
2017-10-15T10:37:40.157Z,6.80
2017-10-15T10:40:07.837Z,7.37
2017-10-15T10:42:35.364Z,6.62
2017-10-15T10:45:02.879Z,6.62
2017-10-15T10:47:30.507Z,6.05
2017-10-15T10:49:58.024Z,6.20
2017-10-15T10:52:25.575Z,6.47
2017-10-15T10:54:53.363Z,6.87
2017-10-15T10:57:20.884Z,6.68
2017-10-15T10:59:48.411Z,7.20
2017-10-15T11:02:16.065Z,7.93
2017-10-15T11:04:43.604Z,7.75
2017-10-15T11:07:11.466Z,8.10
2017-10-15T11:09:39.062Z,7.67
2017-10-15T11:12:06.583Z,8.67
2017-10-15T11:14:34.149Z,7.65
2017-10-15T11:17:02.748Z,7.82
2017-10-15T11:19:31.100Z,7.82
2017-10-15T11:21:59.185Z,7.05
2017-10-15T11:24:27.096Z,7.87
2017-10-15T11:26:55.819Z,7.90
2017-10-15T11:29:23.360Z,8.38
2017-10-15T11:31:51.211Z,7.78
2017-10-15T11:34:18.784Z,6.60
2017-10-15T11:36:46.468Z,7.68
2017-10-15T11:39:14.266Z,7.20
2017-10-15T11:41:41.910Z,7.60
2017-10-15T11:44:09.639Z,6.60
2017-10-15T11:46:37.431Z,6.45
2017-10-15T11:49:04.964Z,7.12
2017-10-15T11:51:32.514Z,6.82
2017-10-15T11:54:00.107Z,6.55
2017-10-15T11:56:27.635Z,6.68
2017-10-15T11:58:55.251Z,7.20
2017-10-15T12:01:23.003Z,6.37
2017-10-15T12:03:50.519Z,6.60
2017-10-15T12:06:18.029Z,5.32
2017-10-15T12:08:45.683Z,6.07
2017-10-15T12:11:13.211Z,6.40
2017-10-15T12:13:40.810Z,6.13
2017-10-15T12:16:08.691Z,7.07
2017-10-15T12:18:36.212Z,7.23
2017-10-15T12:21:03.735Z,7.27
2017-10-15T12:23:31.296Z,7.57
2017-10-15T12:25:58.840Z,8.67
2017-10-15T12:28:26.363Z,9.17
2017-10-15T12:30:54.001Z,7.50
2017-10-15T12:33:21.522Z,9.00
2017-10-15T12:35:49.039Z,7.40
2017-10-15T12:38:17.030Z,8.10
2017-10-15T12:40:44.550Z,9.10
2017-10-15T12:43:12.072Z,9.27
2017-10-15T12:45:39.891Z,9.07
2017-10-15T12:48:07.412Z,8.30
2017-10-15T12:50:34.931Z,8.10
2017-10-15T12:53:02.671Z,8.87
2017-10-15T12:55:30.191Z,7.40
2017-10-15T12:57:58.219Z,8.07
2017-10-15T13:00:25.859Z,7.83
2017-10-15T13:02:53.387Z,8.60
2017-10-15T13:05:20.912Z,8.03
2017-10-15T13:07:48.670Z,8.67
2017-10-15T13:10:16.188Z,8.50
2017-10-15T13:12:43.703Z,8.10
2017-10-15T13:15:11.335Z,9.20
2017-10-15T13:17:38.862Z,9.83
2017-10-15T13:20:06.381Z,8.20
2017-10-15T13:22:34.100Z,7.80
2017-10-15T13:25:01.620Z,8.23
2017-10-15T13:27:29.144Z,8.37
2017-10-15T13:29:56.819Z,7.67
2017-10-15T13:32:24.335Z,8.30
2017-10-15T13:34:51.858Z,7.73
2017-10-15T13:37:19.759Z,7.70
2017-10-15T13:39:47.274Z,6.37
2017-10-15T13:42:14.800Z,8.40
2017-10-15T13:44:42.539Z,7.90
2017-10-15T13:47:10.056Z,8.33
2017-10-15T13:49:37.574Z,7.70
2017-10-15T13:52:05.169Z,6.80
2017-10-15T13:54:32.691Z,6.60
2017-10-15T13:57:00.211Z,6.93
2017-10-15T13:59:28.003Z,6.73
2017-10-15T14:01:55.518Z,8.00
2017-10-15T14:04:23.035Z,7.07
2017-10-15T14:06:50.639Z,7.23
2017-10-15T14:09:18.156Z,6.40
2017-10-15T14:11:45.671Z,6.10
2017-10-15T14:14:13.481Z,4.97
2017-10-15T14:16:41.007Z,6.23
2017-10-15T14:19:08.556Z,6.07
2017-10-15T14:21:36.448Z,7.30
2017-10-15T14:24:03.972Z,6.10
2017-10-15T14:26:31.487Z,5.47
2017-10-15T14:28:59.184Z,6.03
2017-10-15T14:31:26.699Z,6.50
2017-10-15T14:33:54.263Z,6.20
2017-10-15T14:36:22.099Z,5.80
2017-10-15T14:38:49.624Z,5.17
2017-10-15T14:41:17.140Z,5.43
2017-10-15T14:43:44.773Z,5.60
2017-10-15T14:46:12.295Z,6.27
2017-10-15T14:48:39.824Z,6.50
2017-10-15T14:51:07.419Z,6.83
2017-10-15T14:53:35.166Z,5.80
2017-10-15T14:56:02.696Z,6.20
2017-10-15T14:58:30.825Z,6.63
2017-10-15T15:00:59.347Z,6.73
2017-10-15T15:03:28.612Z,6.37
2017-10-15T15:05:56.429Z,5.80
2017-10-15T15:08:23.963Z,7.27
2017-10-15T15:10:51.816Z,5.60
2017-10-15T15:13:19.640Z,6.70
2017-10-15T15:15:47.292Z,6.30
2017-10-15T15:20:47.396Z,6.67
2017-10-15T15:23:14.911Z,6.43
2017-10-15T15:25:43.343Z,7.40
2017-10-15T15:28:11.001Z,5.63
2017-10-15T15:30:38.543Z,6.03
2017-10-15T15:33:07.347Z,6.40
2017-10-15T15:35:35.320Z,5.90
2017-10-15T15:38:02.832Z,5.70
2017-10-15T15:40:30.348Z,5.87
2017-10-15T15:43:00.072Z,5.93
2017-10-15T15:45:28.728Z,6.30
2017-10-15T15:47:56.503Z,6.50
2017-10-15T15:50:24.230Z,6.30
2017-10-15T15:52:52.020Z,6.90
2017-10-15T15:55:19.785Z,7.90
2017-10-15T15:57:47.773Z,7.50
2017-10-15T16:00:15.523Z,8.83
2017-10-15T16:02:43.178Z,7.80
2017-10-15T16:05:11.248Z,8.40
2017-10-15T16:07:40.139Z,8.40
2017-10-15T16:10:09.029Z,8.03
2017-10-15T16:12:36.867Z,8.57
2017-10-15T16:15:05.498Z,9.33
2017-10-15T16:17:33.546Z,9.87
2017-10-15T16:20:01.308Z,8.60
2017-10-15T16:22:29.999Z,8.90
2017-10-15T16:24:57.808Z,8.60
2017-10-15T16:27:25.835Z,9.17
2017-10-15T16:29:53.482Z,8.50
2017-10-15T16:32:22.924Z,8.30
2017-10-15T16:34:50.868Z,8.07
2017-10-15T16:37:18.735Z,9.57
2017-10-15T16:39:46.279Z,8.40
2017-10-15T16:42:13.869Z,8.47
2017-10-15T16:44:41.389Z,8.67
2017-10-15T16:47:08.913Z,8.57
2017-10-15T16:49:36.499Z,9.77
2017-10-15T16:52:04.179Z,8.73
2017-10-15T16:54:31.716Z,9.50
2017-10-15T16:56:59.587Z,9.57
2017-10-15T16:59:27.125Z,11.07
2017-10-15T17:01:55.411Z,12.17
2017-10-15T17:04:22.989Z,11.97
2017-10-15T17:06:50.675Z,13.27
2017-10-15T17:09:18.333Z,12.87
2017-10-15T17:11:46.814Z,15.50
2017-10-15T17:14:14.783Z,13.37
2017-10-15T17:16:42.651Z,13.73
2017-10-15T17:19:10.619Z,16.37
2017-10-15T17:21:38.490Z,17.80
2017-10-15T17:24:06.352Z,16.83
2017-10-15T17:26:34.512Z,15.53
2017-10-15T17:29:02.391Z,17.17
2017-10-15T17:31:30.467Z,16.50
2017-10-15T17:33:59.456Z,15.80
2017-10-15T17:36:29.065Z,13.37
2017-10-15T17:38:56.697Z,11.40
2017-10-15T17:41:25.000Z,13.27
2017-10-15T17:43:52.663Z,11.47
2017-10-15T17:46:20.275Z,9.60
2017-10-15T17:48:49.597Z,9.60
2017-10-15T17:51:17.500Z,9.43
2017-10-15T17:53:45.070Z,8.23
2017-10-15T17:56:13.121Z,10.20
2017-10-15T17:58:41.828Z,9.60
2017-10-15T18:01:09.791Z,8.73
2017-10-15T18:03:38.049Z,9.70
2017-10-15T18:06:05.728Z,8.73
2017-10-15T18:08:33.680Z,9.30
2017-10-15T18:11:01.649Z,10.50
2017-10-15T18:13:29.311Z,9.93
2017-10-15T18:15:56.872Z,9.70
2017-10-15T18:18:25.147Z,10.13
2017-10-15T18:20:54.037Z,10.17
2017-10-15T18:23:21.722Z,10.60
2017-10-15T18:25:50.648Z,10.43
2017-10-15T18:28:18.445Z,9.37
2017-10-15T18:30:46.219Z,10.80
2017-10-15T18:33:15.237Z,10.20
2017-10-15T18:35:43.078Z,10.40
2017-10-15T18:38:10.846Z,11.33
2017-10-15T18:40:38.811Z,11.93
2017-10-15T18:43:08.522Z,12.27
2017-10-15T18:45:36.491Z,11.83
2017-10-15T18:48:04.666Z,12.27
2017-10-15T18:50:32.323Z,12.10
2017-10-15T18:53:00.306Z,11.53
2017-10-15T18:55:29.306Z,11.20
2017-10-15T18:57:57.166Z,11.30
2017-10-15T19:00:25.020Z,11.43
2017-10-15T19:02:53.254Z,10.70
2017-10-15T19:05:21.121Z,11.00
2017-10-15T19:07:48.823Z,11.73
2017-10-15T19:10:17.319Z,11.57
2017-10-15T19:12:45.065Z,10.90
2017-10-15T19:15:12.847Z,11.63
2017-10-15T19:17:40.700Z,12.70
2017-10-15T19:20:08.465Z,11.63
2017-10-15T19:22:36.330Z,10.67
2017-10-15T19:25:04.318Z,11.10
2017-10-15T19:27:32.676Z,12.13
2017-10-15T19:30:00.284Z,12.07
2017-10-15T19:32:28.103Z,11.10
2017-10-15T19:34:55.761Z,13.40
2017-10-15T19:37:23.731Z,12.33
2017-10-15T19:39:51.632Z,12.07
2017-10-15T19:42:19.373Z,11.27
2017-10-15T19:44:47.229Z,10.23
2017-10-15T19:47:15.984Z,10.63
2017-10-15T19:49:43.678Z,10.40
2017-10-15T19:52:11.441Z,10.50
2017-10-15T19:54:39.533Z,10.83
2017-10-15T19:57:07.143Z,11.20
2017-10-15T19:59:34.938Z,10.63
2017-10-15T20:02:02.906Z,11.87
2017-10-15T20:04:30.593Z,11.77
2017-10-15T20:06:58.154Z,11.60
2017-10-15T20:09:25.975Z,11.63
2017-10-15T20:11:53.828Z,10.80
2017-10-15T20:14:21.376Z,11.40
2017-10-15T20:16:50.102Z,11.07
2017-10-15T20:19:17.884Z,10.50
2017-10-15T20:21:46.392Z,11.20
2017-10-15T20:24:14.222Z,11.60
2017-10-15T20:26:41.895Z,11.60
2017-10-15T20:29:10.147Z,12.10
2017-10-15T20:31:38.243Z,11.60
2017-10-15T20:34:06.602Z,11.07
2017-10-15T20:36:34.412Z,10.80
2017-10-15T20:39:02.334Z,11.53
2017-10-15T20:41:30.138Z,11.23
2017-10-15T20:44:00.862Z,11.07
2017-10-15T20:46:28.877Z,11.10
2017-10-15T20:48:56.882Z,10.80
2017-10-15T20:51:24.637Z,10.47
2017-10-15T20:53:52.707Z,10.77
2017-10-15T20:56:20.275Z,11.27
2017-10-15T20:58:48.139Z,11.00
2017-10-15T21:01:16.224Z,10.60
2017-10-15T21:03:43.743Z,11.43
2017-10-15T21:06:11.288Z,10.13
2017-10-15T21:08:38.831Z,9.70
2017-10-15T21:11:06.387Z,11.00
2017-10-15T21:13:33.928Z,9.87
2017-10-15T21:16:01.916Z,9.93
2017-10-15T21:18:29.440Z,12.00
2017-10-15T21:20:56.985Z,10.50
2017-10-15T21:23:24.543Z,9.60
2017-10-15T21:25:52.064Z,11.30
2017-10-15T21:28:19.583Z,9.93
2017-10-15T21:30:47.160Z,10.60
2017-10-15T21:33:14.680Z,10.23
2017-10-15T21:35:42.199Z,8.97
2017-10-15T21:38:09.771Z,10.47
2017-10-15T21:40:37.291Z,9.93
2017-10-15T21:43:04.811Z,8.60
2017-10-15T21:45:32.564Z,12.00
2017-10-15T21:48:00.099Z,10.47
2017-10-15T21:50:27.639Z,10.40
2017-10-15T21:52:55.337Z,11.93
2017-10-15T21:55:22.915Z,10.27
2017-10-15T21:57:51.395Z,10.23
2017-10-15T22:00:19.151Z,10.13
2017-10-15T22:02:46.684Z,11.60
2017-10-15T22:05:14.211Z,9.87
2017-10-15T22:07:42.042Z,11.07
2017-10-15T22:10:09.599Z,10.03
2017-10-15T22:12:37.169Z,9.30
2017-10-15T22:15:05.026Z,10.13
2017-10-15T22:17:32.586Z,8.87
2017-10-15T22:20:00.129Z,10.07
2017-10-15T22:22:27.679Z,10.40
2017-10-15T22:24:55.220Z,9.43
2017-10-15T22:27:22.745Z,9.70
2017-10-15T22:29:50.567Z,10.20
2017-10-15T22:32:18.145Z,10.27
2017-10-15T22:34:45.728Z,9.70
2017-10-15T22:37:13.468Z,9.90
2017-10-15T22:39:41.028Z,9.50
2017-10-15T22:42:08.586Z,9.70
2017-10-15T22:44:36.331Z,9.10
2017-10-15T22:47:03.854Z,9.70
2017-10-15T22:49:31.376Z,9.87
2017-10-15T22:51:59.131Z,9.90
2017-10-15T22:54:26.702Z,10.03
2017-10-15T22:56:54.228Z,10.00
2017-10-15T22:59:21.800Z,9.40
2017-10-15T23:01:49.323Z,9.30
2017-10-15T23:04:16.844Z,10.20
2017-10-15T23:06:44.588Z,10.23
2017-10-15T23:09:12.911Z,11.10
2017-10-15T23:11:40.437Z,10.07
2017-10-15T23:14:07.991Z,10.27
2017-10-15T23:16:35.539Z,10.67
2017-10-15T23:19:03.101Z,9.80
2017-10-15T23:21:30.676Z,9.98
2017-10-15T23:23:58.218Z,11.00
2017-10-15T23:26:25.793Z,10.57
2017-10-15T23:28:53.521Z,10.83
2017-10-15T23:31:21.048Z,10.30
2017-10-15T23:33:48.593Z,10.80
2017-10-15T23:36:16.219Z,9.57
2017-10-15T23:38:43.776Z,10.65
2017-10-15T23:41:11.312Z,10.48
2017-10-15T23:43:39.203Z,9.95
2017-10-15T23:46:06.763Z,9.20
2017-10-15T23:48:34.287Z,11.30
2017-10-15T23:51:02.167Z,10.87
2017-10-15T23:53:29.687Z,10.27
2017-10-15T23:55:57.206Z,10.80
2017-10-15T23:58:25.172Z,10.63
